sensor_id;sensor_type;location;lat;lon;timestamp;pressure;altitude;pressure_sealevel;temperature;humidity
22389;BME280;11362;48.102;11.620;2023-03-26T00:01:32;94776.19;;;23.86;36.42
22389;BME280;11362;48.102;11.620;2023-03-26T00:03:58;94782.16;;;23.84;36.40
22389;BME280;11362;48.102;11.620;2023-03-26T00:06:27;94761.16;;;23.83;36.35
22389;BME280;11362;48.102;11.620;2023-03-26T00:08:52;94771.06;;;23.84;36.15
22389;BME280;11362;48.102;11.620;2023-03-26T00:11:21;94768.72;;;23.83;36.23
22389;BME280;11362;48.102;11.620;2023-03-26T00:13:47;94752.50;;;23.81;36.12
22389;BME280;11362;48.102;11.620;2023-03-26T00:16:15;94763.59;;;23.81;36.42
22389;BME280;11362;48.102;11.620;2023-03-26T00:18:41;94764.81;;;23.80;36.22
22389;BME280;11362;48.102;11.620;2023-03-26T00:21:09;94764.81;;;23.80;36.21
22389;BME280;11362;48.102;11.620;2023-03-26T00:23:36;94754.94;;;23.79;36.25
22389;BME280;11362;48.102;11.620;2023-03-26T00:26:02;94759.69;;;23.79;36.19
22389;BME280;11362;48.102;11.620;2023-03-26T00:28:28;94758.91;;;23.78;35.98
22389;BME280;11362;48.102;11.620;2023-03-26T00:31:00;94757.34;;;23.77;35.91
22389;BME280;11362;48.102;11.620;2023-03-26T00:33:26;94760.13;;;23.77;36.06
22389;BME280;11362;48.102;11.620;2023-03-26T00:35:53;94757.00;;;23.75;35.95
22389;BME280;11362;48.102;11.620;2023-03-26T00:38:20;94761.31;;;23.76;36.02
22389;BME280;11362;48.102;11.620;2023-03-26T00:40:47;94751.44;;;23.75;36.00
22389;BME280;11362;48.102;11.620;2023-03-26T00:43:13;94747.09;;;23.74;36.20
22389;BME280;11362;48.102;11.620;2023-03-26T00:45:38;94748.31;;;23.73;36.00
22389;BME280;11362;48.102;11.620;2023-03-26T00:48:04;94744.75;;;23.73;35.95
22389;BME280;11362;48.102;11.620;2023-03-26T00:50:29;94740.00;;;23.73;35.71
22389;BME280;11362;48.102;11.620;2023-03-26T00:52:54;94740.00;;;23.73;35.83
22389;BME280;11362;48.102;11.620;2023-03-26T00:55:20;94742.44;;;23.71;35.91
22389;BME280;11362;48.102;11.620;2023-03-26T00:57:45;94725.78;;;23.71;35.74
22389;BME280;11362;48.102;11.620;2023-03-26T01:00:11;94742.78;;;23.73;35.71
22389;BME280;11362;48.102;11.620;2023-03-26T01:02:37;94740.09;;;23.70;35.64
22389;BME280;11362;48.102;11.620;2023-03-26T01:07:56;94747.59;;;23.69;35.66
22389;BME280;11362;48.102;11.620;2023-03-26T01:10:22;94738.59;;;23.65;35.48
22389;BME280;11362;48.102;11.620;2023-03-26T01:12:48;94741.31;;;23.69;35.60
22389;BME280;11362;48.102;11.620;2023-03-26T01:15:13;94742.06;;;23.69;35.55
22389;BME280;11362;48.102;11.620;2023-03-26T01:17:39;94744.84;;;23.69;35.49
22389;BME280;11362;48.102;11.620;2023-03-26T01:20:16;94743.28;;;23.68;35.52
22389;BME280;11362;48.102;11.620;2023-03-26T01:22:49;94740.16;;;23.66;35.57
22389;BME280;11362;48.102;11.620;2023-03-26T01:25:15;94741.72;;;23.67;35.62
22389;BME280;11362;48.102;11.620;2023-03-26T01:27:47;94744.16;;;23.65;35.52
22389;BME280;11362;48.102;11.620;2023-03-26T01:41:05;94727.50;;;23.65;35.00
22389;BME280;11362;48.102;11.620;2023-03-26T01:43:38;94724.41;;;23.63;35.30
22389;BME280;11362;48.102;11.620;2023-03-26T01:46:10;94722.81;;;23.62;35.06
22389;BME280;11362;48.102;11.620;2023-03-26T01:48:40;94717.25;;;23.62;35.10
22389;BME280;11362;48.102;11.620;2023-03-26T01:51:08;94720.03;;;23.62;35.17
22389;BME280;11362;48.102;11.620;2023-03-26T01:53:37;94717.25;;;23.62;34.97
22389;BME280;11362;48.102;11.620;2023-03-26T02:02:03;94714.94;;;23.61;35.00
22389;BME280;11362;48.102;11.620;2023-03-26T02:04:44;94715.72;;;23.61;34.87
22389;BME280;11362;48.102;11.620;2023-03-26T02:09:45;94702.31;;;23.60;34.86
22389;BME280;11362;48.102;11.620;2023-03-26T02:12:13;94701.50;;;23.59;34.83
22389;BME280;11362;48.102;11.620;2023-03-26T02:14:39;94698.72;;;23.59;34.71
22389;BME280;11362;48.102;11.620;2023-03-26T02:17:05;94694.41;;;23.58;34.70
22389;BME280;11362;48.102;11.620;2023-03-26T02:19:30;94698.72;;;23.59;34.76
22389;BME280;11362;48.102;11.620;2023-03-26T02:21:55;94681.75;;;23.57;34.64
22389;BME280;11362;48.102;11.620;2023-03-26T02:24:20;94679.00;;;23.57;34.67
22389;BME280;11362;48.102;11.620;2023-03-26T02:26:46;94675.41;;;23.57;34.46
22389;BME280;11362;48.102;11.620;2023-03-26T02:29:12;94682.53;;;23.58;34.58
22389;BME280;11362;48.102;11.620;2023-03-26T02:31:38;94680.97;;;23.57;34.64
22389;BME280;11362;48.102;11.620;2023-03-26T02:34:04;94680.19;;;23.56;34.63
22389;BME280;11362;48.102;11.620;2023-03-26T02:36:29;94677.44;;;23.56;34.59
22389;BME280;11362;48.102;11.620;2023-03-26T02:38:55;94681.75;;;23.57;34.69
22389;BME280;11362;48.102;11.620;2023-03-26T02:41:20;94672.66;;;23.57;34.78
22389;BME280;11362;48.102;11.620;2023-03-26T02:43:46;94676.97;;;23.58;34.60
22389;BME280;11362;48.102;11.620;2023-03-26T02:46:11;94669.13;;;23.56;34.34
22389;BME280;11362;48.102;11.620;2023-03-26T02:48:36;94663.56;;;23.56;35.02
22389;BME280;11362;48.102;11.620;2023-03-26T02:51:02;94665.13;;;23.57;34.62
22389;BME280;11362;48.102;11.620;2023-03-26T02:53:28;94652.09;;;23.54;34.79
22389;BME280;11362;48.102;11.620;2023-03-26T02:55:54;94658.78;;;23.57;34.60
22389;BME280;11362;48.102;11.620;2023-03-26T02:58:19;94656.00;;;23.57;34.75
22389;BME280;11362;48.102;11.620;2023-03-26T03:00:45;94653.66;;;23.55;34.67
22389;BME280;11362;48.102;11.620;2023-03-26T03:03:12;94647.69;;;23.57;34.72
22389;BME280;11362;48.102;11.620;2023-03-26T03:05:37;94655.25;;;23.56;34.76
22389;BME280;11362;48.102;11.620;2023-03-26T03:08:03;94641.38;;;23.56;34.85
22389;BME280;11362;48.102;11.620;2023-03-26T03:10:29;94634.25;;;23.55;34.76
22389;BME280;11362;48.102;11.620;2023-03-26T03:12:54;94628.72;;;23.55;34.58
22389;BME280;11362;48.102;11.620;2023-03-26T03:15:20;94629.50;;;23.56;34.63
22389;BME280;11362;48.102;11.620;2023-03-26T03:17:45;94623.97;;;23.56;34.70
22389;BME280;11362;48.102;11.620;2023-03-26T03:20:11;94607.34;;;23.56;34.78
22389;BME280;11362;48.102;11.620;2023-03-26T03:22:37;94621.19;;;23.56;34.66
22389;BME280;11362;48.102;11.620;2023-03-26T03:25:03;94604.97;;;23.54;34.65
22389;BME280;11362;48.102;11.620;2023-03-26T03:27:29;94601.00;;;23.55;34.71
22389;BME280;11362;48.102;11.620;2023-03-26T03:29:55;94593.91;;;23.54;34.67
22389;BME280;11362;48.102;11.620;2023-03-26T03:32:22;94602.22;;;23.54;34.49
22389;BME280;11362;48.102;11.620;2023-03-26T03:34:48;94598.59;;;23.57;34.63
22389;BME280;11362;48.102;11.620;2023-03-26T03:37:13;94596.25;;;23.56;34.69
22389;BME280;11362;48.102;11.620;2023-03-26T03:39:39;94605.34;;;23.56;34.75
22389;BME280;11362;48.102;11.620;2023-03-26T03:42:04;94597.78;;;23.57;34.62
22389;BME280;11362;48.102;11.620;2023-03-26T03:44:29;94596.25;;;23.56;34.60
22389;BME280;11362;48.102;11.620;2023-03-26T03:46:55;94597.03;;;23.56;34.64
22389;BME280;11362;48.102;11.620;2023-03-26T03:49:21;94594.59;;;23.58;34.72
22389;BME280;11362;48.102;11.620;2023-03-26T03:51:46;94590.28;;;23.57;34.53
22389;BME280;11362;48.102;11.620;2023-03-26T03:54:11;94590.69;;;23.56;34.64
22389;BME280;11362;48.102;11.620;2023-03-26T03:56:37;94586.72;;;23.57;34.57
22389;BME280;11362;48.102;11.620;2023-03-26T03:59:02;94588.72;;;23.56;34.59
22389;BME280;11362;48.102;11.620;2023-03-26T04:01:28;94591.50;;;23.56;34.53
22389;BME280;11362;48.102;11.620;2023-03-26T04:03:53;94591.50;;;23.56;34.76
22389;BME280;11362;48.102;11.620;2023-03-26T04:06:19;94585.94;;;23.56;34.69
22389;BME280;11362;48.102;11.620;2023-03-26T04:08:45;94578.81;;;23.55;34.66
22389;BME280;11362;48.102;11.620;2023-03-26T04:11:12;94581.97;;;23.57;34.53
22389;BME280;11362;48.102;11.620;2023-03-26T04:13:38;94574.84;;;23.56;34.63
22389;BME280;11362;48.102;11.620;2023-03-26T04:16:04;94567.72;;;23.55;34.63
22389;BME280;11362;48.102;11.620;2023-03-26T04:18:29;94567.72;;;23.55;34.86
22389;BME280;11362;48.102;11.620;2023-03-26T04:20:54;94566.53;;;23.56;34.50
22389;BME280;11362;48.102;11.620;2023-03-26T04:23:21;94568.53;;;23.56;34.63
22389;BME280;11362;48.102;11.620;2023-03-26T04:25:52;94562.97;;;23.56;34.46
22389;BME280;11362;48.102;11.620;2023-03-26T04:28:30;94550.66;;;23.57;34.53
22389;BME280;11362;48.102;11.620;2023-03-26T04:30:58;94545.56;;;23.55;34.85
22389;BME280;11362;48.102;11.620;2023-03-26T04:33:30;94551.88;;;23.56;34.41
22389;BME280;11362;48.102;11.620;2023-03-26T04:35:57;94548.69;;;23.57;34.46
22389;BME280;11362;48.102;11.620;2023-03-26T04:38:22;94555.44;;;23.56;34.37
22389;BME280;11362;48.102;11.620;2023-03-26T04:40:48;94547.56;;;23.55;34.50
22389;BME280;11362;48.102;11.620;2023-03-26T04:43:15;94541.59;;;23.56;34.48
22389;BME280;11362;48.102;11.620;2023-03-26T04:45:41;94534.84;;;23.57;34.47
22389;BME280;11362;48.102;11.620;2023-03-26T04:48:07;94543.91;;;23.58;34.47
22389;BME280;11362;48.102;11.620;2023-03-26T04:50:33;94523.38;;;23.55;34.50
22389;BME280;11362;48.102;11.620;2023-03-26T04:52:58;94529.72;;;23.56;34.50
22389;BME280;11362;48.102;11.620;2023-03-26T04:55:32;94518.63;;;23.56;34.43
22389;BME280;11362;48.102;11.620;2023-03-26T04:57:59;94520.59;;;23.55;34.55
22389;BME280;11362;48.102;11.620;2023-03-26T05:00:25;94523.75;;;23.57;34.45
22389;BME280;11362;48.102;11.620;2023-03-26T05:02:50;94527.72;;;23.56;34.49
22389;BME280;11362;48.102;11.620;2023-03-26T05:05:16;94519.41;;;23.56;34.36
22389;BME280;11362;48.102;11.620;2023-03-26T05:07:41;94518.63;;;23.56;34.37
22389;BME280;11362;48.102;11.620;2023-03-26T05:10:10;94510.31;;;23.56;34.31
22389;BME280;11362;48.102;11.620;2023-03-26T05:12:36;94505.56;;;23.56;34.37
22389;BME280;11362;48.102;11.620;2023-03-26T05:15:02;94503.97;;;23.55;34.39
22389;BME280;11362;48.102;11.620;2023-03-26T05:17:28;94489.34;;;23.55;34.30
22389;BME280;11362;48.102;11.620;2023-03-26T05:19:53;94499.56;;;23.58;34.35
22389;BME280;11362;48.102;11.620;2023-03-26T05:22:18;94484.56;;;23.55;34.46
22389;BME280;11362;48.102;11.620;2023-03-26T05:24:44;94484.56;;;23.55;34.33
22389;BME280;11362;48.102;11.620;2023-03-26T05:27:14;94488.91;;;23.56;34.07
22389;BME280;11362;48.102;11.620;2023-03-26T05:29:40;94485.34;;;23.56;34.43
22389;BME280;11362;48.102;11.620;2023-03-26T05:32:06;94478.16;;;23.58;34.27
22389;BME280;11362;48.102;11.620;2023-03-26T05:34:31;94474.19;;;23.59;34.32
22389;BME280;11362;48.102;11.620;2023-03-26T05:36:57;94483.72;;;23.58;34.31
22389;BME280;11362;48.102;11.620;2023-03-26T05:39:22;94494.81;;;23.58;34.39
22389;BME280;11362;48.102;11.620;2023-03-26T05:41:49;94480.94;;;23.58;34.24
22389;BME280;11362;48.102;11.620;2023-03-26T05:44:14;94482.16;;;23.57;34.24
22389;BME280;11362;48.102;11.620;2023-03-26T05:46:40;94474.28;;;23.56;34.34
22389;BME280;11362;48.102;11.620;2023-03-26T05:49:05;94472.63;;;23.58;34.30
22389;BME280;11362;48.102;11.620;2023-03-26T05:51:31;94465.53;;;23.57;34.24
22389;BME280;11362;48.102;11.620;2023-03-26T05:53:56;94470.28;;;23.57;34.17
22389;BME280;11362;48.102;11.620;2023-03-26T05:56:22;94459.19;;;23.57;34.27
22389;BME280;11362;48.102;11.620;2023-03-26T05:58:47;94450.88;;;23.57;34.13
22389;BME280;11362;48.102;11.620;2023-03-26T06:01:13;94444.09;;;23.58;34.25
22389;BME280;11362;48.102;11.620;2023-03-26T06:03:39;94444.56;;;23.56;34.19
22389;BME280;11362;48.102;11.620;2023-03-26T06:06:10;94460.75;;;23.58;34.15
22389;BME280;11362;48.102;11.620;2023-03-26T06:08:36;94441.00;;;23.56;34.17
22389;BME280;11362;48.102;11.620;2023-03-26T06:11:04;94440.56;;;23.57;34.22
22389;BME280;11362;48.102;11.620;2023-03-26T06:13:29;94441.00;;;23.56;34.38
22389;BME280;11362;48.102;11.620;2023-03-26T06:15:55;94426.72;;;23.57;34.15
22389;BME280;11362;48.102;11.620;2023-03-26T06:18:21;94420.38;;;23.57;34.24
22389;BME280;11362;48.102;11.620;2023-03-26T06:20:46;94423.06;;;23.60;34.42
22389;BME280;11362;48.102;11.620;2023-03-26T06:23:12;94428.28;;;23.58;34.65
22389;BME280;11362;48.102;11.620;2023-03-26T06:25:37;94431.03;;;23.58;34.37
22389;BME280;11362;48.102;11.620;2023-03-26T06:28:03;94427.47;;;23.58;34.38
22389;BME280;11362;48.102;11.620;2023-03-26T06:30:29;94424.28;;;23.59;34.65
22389;BME280;11362;48.102;11.620;2023-03-26T06:32:54;94421.84;;;23.61;34.48
22389;BME280;11362;48.102;11.620;2023-03-26T06:35:20;94421.06;;;23.61;34.91
22389;BME280;11362;48.102;11.620;2023-03-26T06:37:46;94423.38;;;23.62;34.84
22389;BME280;11362;48.102;11.620;2023-03-26T06:40:12;94419.44;;;23.63;34.88
22389;BME280;11362;48.102;11.620;2023-03-26T06:42:38;94406.66;;;23.66;34.97
22389;BME280;11362;48.102;11.620;2023-03-26T06:45:04;94399.56;;;23.65;35.32
22389;BME280;11362;48.102;11.620;2023-03-26T06:47:30;94374.50;;;23.68;35.32
22389;BME280;11362;48.102;11.620;2023-03-26T06:49:56;94375.41;;;23.65;35.18
22389;BME280;11362;48.102;11.620;2023-03-26T06:52:21;94375.41;;;23.65;35.18
22389;BME280;11362;48.102;11.620;2023-03-26T06:54:46;94329.91;;;23.63;34.97
22389;BME280;11362;48.102;11.620;2023-03-26T06:57:12;94346.56;;;23.63;35.04
22389;BME280;11362;48.102;11.620;2023-03-26T06:59:37;94373.84;;;23.64;35.17
22389;BME280;11362;48.102;11.620;2023-03-26T07:02:03;94373.50;;;23.62;35.10
22389;BME280;11362;48.102;11.620;2023-03-26T07:04:28;94376.63;;;23.64;34.86
22389;BME280;11362;48.102;11.620;2023-03-26T07:06:54;94373.50;;;23.62;34.99
22389;BME280;11362;48.102;11.620;2023-03-26T07:09:19;94371.19;;;23.61;34.90
22389;BME280;11362;48.102;11.620;2023-03-26T07:11:45;94375.16;;;23.60;34.82
22389;BME280;11362;48.102;11.620;2023-03-26T07:14:10;94366.06;;;23.59;34.69
22389;BME280;11362;48.102;11.620;2023-03-26T07:16:36;94368.84;;;23.59;34.82
22389;BME280;11362;48.102;11.620;2023-03-26T07:19:01;94361.63;;;23.62;34.74
22389;BME280;11362;48.102;11.620;2023-03-26T07:21:27;94402.88;;;23.60;34.66
22389;BME280;11362;48.102;11.620;2023-03-26T07:23:53;94402.00;;;23.63;35.10
22389;BME280;11362;48.102;11.620;2023-03-26T07:31:40;94331.56;;;23.60;34.69
22389;BME280;11362;48.102;11.620;2023-03-26T07:34:21;94318.94;;;23.59;34.74
22389;BME280;11362;48.102;11.620;2023-03-26T07:36:56;94305.50;;;23.58;34.64
22389;BME280;11362;48.102;11.620;2023-03-26T07:39:33;94293.19;;;23.59;34.76
22389;BME280;11362;48.102;11.620;2023-03-26T07:42:21;94281.69;;;23.60;34.83
22389;BME280;11362;48.102;11.620;2023-03-26T07:45:18;94263.50;;;23.59;35.02
22389;BME280;11362;48.102;11.620;2023-03-26T07:47:46;94260.41;;;23.57;34.92
22389;BME280;11362;48.102;11.620;2023-03-26T07:50:17;94230.22;;;23.59;35.02
22389;BME280;11362;48.102;11.620;2023-03-26T07:52:43;94269.94;;;23.56;35.00
22389;BME280;11362;48.102;11.620;2023-03-26T07:55:14;94258.84;;;23.56;34.89
22389;BME280;11362;48.102;11.620;2023-03-26T07:58:15;94251.28;;;23.57;34.97
22389;BME280;11362;48.102;11.620;2023-03-26T08:01:02;94284.22;;;23.55;34.77
22389;BME280;11362;48.102;11.620;2023-03-26T08:03:49;94272.34;;;23.54;34.75
22389;BME280;11362;48.102;11.620;2023-03-26T08:06:36;94265.16;;;23.57;34.95
22389;BME280;11362;48.102;11.620;2023-03-26T08:09:11;94266.69;;;23.58;34.91
22389;BME280;11362;48.102;11.620;2023-03-26T08:11:51;94250.84;;;23.58;35.04
22389;BME280;11362;48.102;11.620;2023-03-26T08:14:35;94249.97;;;23.61;35.04
22389;BME280;11362;48.102;11.620;2023-03-26T08:17:09;94243.56;;;23.64;35.10
22389;BME280;11362;48.102;11.620;2023-03-26T08:19:54;94236.00;;;23.65;35.11
22389;BME280;11362;48.102;11.620;2023-03-26T08:22:30;94229.13;;;23.69;35.58
22389;BME280;11362;48.102;11.620;2023-03-26T08:25:13;94236.56;;;23.72;35.76
22389;BME280;11362;48.102;11.620;2023-03-26T08:28:03;94235.34;;;23.73;36.25
22389;BME280;11362;48.102;11.620;2023-03-26T08:30:34;94235.34;;;23.73;36.06
22389;BME280;11362;48.102;11.620;2023-03-26T08:33:11;94228.56;;;23.74;36.10
22389;BME280;11362;48.102;11.620;2023-03-26T08:35:37;94226.25;;;23.73;36.01
22389;BME280;11362;48.102;11.620;2023-03-26T08:38:03;94229.81;;;23.73;36.05
22389;BME280;11362;48.102;11.620;2023-03-26T08:46:27;94221.81;;;23.75;36.16
22389;BME280;11362;48.102;11.620;2023-03-26T08:59:57;94231.25;;;23.78;36.25
22389;BME280;11362;48.102;11.620;2023-03-26T09:06:17;94222.16;;;23.77;36.30
22389;BME280;11362;48.102;11.620;2023-03-26T09:14:51;94219.50;;;23.74;36.34
22389;BME280;11362;48.102;11.620;2023-03-26T09:23:26;94239.78;;;23.71;36.05
22389;BME280;11362;48.102;11.620;2023-03-26T09:26:08;94227.47;;;23.72;36.07
22389;BME280;11362;48.102;11.620;2023-03-26T09:34:10;94206.84;;;23.73;35.99
22389;BME280;11362;48.102;11.620;2023-03-26T09:37:13;94202.88;;;23.74;36.06
22389;BME280;11362;48.102;11.620;2023-03-26T09:39:45;94209.16;;;23.74;36.17
22389;BME280;11362;48.102;11.620;2023-03-26T09:54:01;94182.34;;;23.71;36.01
22389;BME280;11362;48.102;11.620;2023-03-26T09:59:21;94177.66;;;23.68;36.00
22389;BME280;11362;48.102;11.620;2023-03-26T10:07:47;94156.28;;;23.69;35.96
22389;BME280;11362;48.102;11.620;2023-03-26T10:10:34;94144.06;;;23.66;35.73
22389;BME280;11362;48.102;11.620;2023-03-26T10:15:49;94132.56;;;23.68;35.76
22389;BME280;11362;48.102;11.620;2023-03-26T10:26:32;94157.03;;;23.69;35.90
22389;BME280;11362;48.102;11.620;2023-03-26T10:29:39;94152.72;;;23.68;35.71
22389;BME280;11362;48.102;11.620;2023-03-26T10:32:32;94154.25;;;23.69;35.76
22389;BME280;11362;48.102;11.620;2023-03-26T10:37:53;94166.25;;;23.66;36.10
22389;BME280;11362;48.102;11.620;2023-03-26T10:40:49;94169.69;;;23.70;35.93
22389;BME280;11362;48.102;11.620;2023-03-26T11:00:13;94171.91;;;23.75;36.51
22389;BME280;11362;48.102;11.620;2023-03-26T11:02:46;94167.91;;;23.76;36.70
22389;BME280;11362;48.102;11.620;2023-03-26T11:05:45;94146.63;;;23.73;36.50
22389;BME280;11362;48.102;11.620;2023-03-26T11:08:20;94133.97;;;23.72;36.57
22389;BME280;11362;48.102;11.620;2023-03-26T11:10:58;94142.63;;;23.74;36.75
22389;BME280;11362;48.102;11.620;2023-03-26T11:16:43;94139.97;;;23.71;36.56
22389;BME280;11362;48.102;11.620;2023-03-26T11:19:26;94141.97;;;23.70;36.48
22389;BME280;11362;48.102;11.620;2023-03-26T11:24:55;94121.78;;;23.70;36.46
22389;BME280;11362;48.102;11.620;2023-03-26T11:27:57;94129.31;;;23.69;36.35
22389;BME280;11362;48.102;11.620;2023-03-26T11:30:45;94135.66;;;23.70;36.43
22389;BME280;11362;48.102;11.620;2023-03-26T11:33:17;94117.78;;;23.71;36.45
22389;BME280;11362;48.102;11.620;2023-03-26T11:35:49;94131.66;;;23.71;36.26
22389;BME280;11362;48.102;11.620;2023-03-26T11:38:23;94134.84;;;23.69;36.25
22389;BME280;11362;48.102;11.620;2023-03-26T11:40:55;94143.19;;;23.69;36.25
22389;BME280;11362;48.102;11.620;2023-03-26T11:43:26;94135.31;;;23.68;36.25
22389;BME280;11362;48.102;11.620;2023-03-26T11:45:53;94138.22;;;23.64;36.30
22389;BME280;11362;48.102;11.620;2023-03-26T11:48:35;94127.44;;;23.66;36.22
22389;BME280;11362;48.102;11.620;2023-03-26T11:51:26;94127.88;;;23.65;36.27
22389;BME280;11362;48.102;11.620;2023-03-26T11:53:53;94131.44;;;23.65;36.20
22389;BME280;11362;48.102;11.620;2023-03-26T11:59:17;94133.09;;;23.63;36.16
22389;BME280;11362;48.102;11.620;2023-03-26T12:04:39;94124.34;;;23.64;36.05
22389;BME280;11362;48.102;11.620;2023-03-26T12:07:15;94117.56;;;23.65;36.21
22389;BME280;11362;48.102;11.620;2023-03-26T12:12:16;94102.94;;;23.65;36.08
22389;BME280;11362;48.102;11.620;2023-03-26T12:14:42;94091.84;;;23.65;35.96
22389;BME280;11362;48.102;11.620;2023-03-26T12:17:14;94093.75;;;23.68;35.98
22389;BME280;11362;48.102;11.620;2023-03-26T12:19:48;94101.59;;;23.69;36.02
22389;BME280;11362;48.102;11.620;2023-03-26T12:22:31;94101.16;;;23.71;35.96
22389;BME280;11362;48.102;11.620;2023-03-26T12:27:42;94097.16;;;23.72;35.83
22389;BME280;11362;48.102;11.620;2023-03-26T12:30:09;94099.16;;;23.71;35.87
22389;BME280;11362;48.102;11.620;2023-03-26T12:32:40;94084.94;;;23.69;35.91
22389;BME280;11362;48.102;11.620;2023-03-26T12:35:09;94083.41;;;23.68;35.77
22389;BME280;11362;48.102;11.620;2023-03-26T12:37:39;94090.19;;;23.67;35.92
22389;BME280;11362;48.102;11.620;2023-03-26T12:40:32;94089.75;;;23.69;35.78
22389;BME280;11362;48.102;11.620;2023-03-26T12:43:00;94072.31;;;23.68;36.00
22389;BME280;11362;48.102;11.620;2023-03-26T12:45:41;94076.31;;;23.67;35.92
22389;BME280;11362;48.102;11.620;2023-03-26T12:48:10;94081.09;;;23.67;35.93
22389;BME280;11362;48.102;11.620;2023-03-26T12:50:48;94080.00;;;23.64;35.90
22389;BME280;11362;48.102;11.620;2023-03-26T13:02:05;94057.81;;;23.64;35.95
22389;BME280;11362;48.102;11.620;2023-03-26T13:04:58;94064.91;;;23.65;35.80
22389;BME280;11362;48.102;11.620;2023-03-26T13:08:01;94055.81;;;23.65;35.90
22389;BME280;11362;48.102;11.620;2023-03-26T13:10:39;94049.16;;;23.62;35.77
22389;BME280;11362;48.102;11.620;2023-03-26T13:16:45;94047.16;;;23.63;35.69
22389;BME280;11362;48.102;11.620;2023-03-26T13:19:38;94040.84;;;23.62;35.75
22389;BME280;11362;48.102;11.620;2023-03-26T13:27:32;94054.69;;;23.62;35.69
22389;BME280;11362;48.102;11.620;2023-03-26T13:30:28;94055.16;;;23.61;35.84
22389;BME280;11362;48.102;11.620;2023-03-26T13:38:37;94055.91;;;23.61;35.57
22389;BME280;11362;48.102;11.620;2023-03-26T13:41:30;94054.69;;;23.62;35.63
22389;BME280;11362;48.102;11.620;2023-03-26T13:44:21;94049.63;;;23.61;35.66
22389;BME280;11362;48.102;11.620;2023-03-26T13:46:59;94041.75;;;23.59;35.66
22389;BME280;11362;48.102;11.620;2023-03-26T13:52:01;94034.66;;;23.58;35.57
22389;BME280;11362;48.102;11.620;2023-03-26T13:54:41;94038.97;;;23.59;35.72
22389;BME280;11362;48.102;11.620;2023-03-26T13:57:21;94029.84;;;23.59;35.46
22389;BME280;11362;48.102;11.620;2023-03-26T14:00:02;94029.84;;;23.59;35.69
22389;BME280;11362;48.102;11.620;2023-03-26T14:02:38;94000.94;;;23.60;35.63
22389;BME280;11362;48.102;11.620;2023-03-26T14:05:14;94002.94;;;23.59;35.64
22389;BME280;11362;48.102;11.620;2023-03-26T14:07:59;94011.25;;;23.59;35.66
22389;BME280;11362;48.102;11.620;2023-03-26T14:10:29;94003.72;;;23.60;35.70
22389;BME280;11362;48.102;11.620;2023-03-26T14:13:00;93986.31;;;23.59;35.56
22389;BME280;11362;48.102;11.620;2023-03-26T14:15:48;93987.53;;;23.58;35.64
22389;BME280;11362;48.102;11.620;2023-03-26T14:18:35;93983.22;;;23.57;35.67
22389;BME280;11362;48.102;11.620;2023-03-26T14:21:27;93988.75;;;23.57;35.67
22389;BME280;11362;48.102;11.620;2023-03-26T14:24:26;93989.06;;;23.59;35.57
22389;BME280;11362;48.102;11.620;2023-03-26T14:27:15;93984.75;;;23.58;35.56
22389;BME280;11362;48.102;11.620;2023-03-26T14:30:27;93990.28;;;23.58;35.46
22389;BME280;11362;48.102;11.620;2023-03-26T14:33:21;93989.97;;;23.56;35.69
22389;BME280;11362;48.102;11.620;2023-03-26T14:42:00;93967.34;;;23.58;35.44
22389;BME280;11362;48.102;11.620;2023-03-26T14:47:16;93963.34;;;23.59;35.44
22389;BME280;11362;48.102;11.620;2023-03-26T14:50:07;93965.34;;;23.58;35.54
22389;BME280;11362;48.102;11.620;2023-03-26T14:52:50;93950.72;;;23.58;35.36
22389;BME280;11362;48.102;11.620;2023-03-26T15:01:28;93953.03;;;23.59;35.36
22389;BME280;11362;48.102;11.620;2023-03-26T15:21:12;93938.88;;;23.57;35.29
22389;BME280;11362;48.102;11.620;2023-03-26T15:24:20;93925.44;;;23.56;35.39
22389;BME280;11362;48.102;11.620;2023-03-26T15:27:23;93929.00;;;23.56;35.49
22389;BME280;11362;48.102;11.620;2023-03-26T15:30:00;93933.75;;;23.56;35.38
22389;BME280;11362;48.102;11.620;2023-03-26T15:35:34;93932.97;;;23.55;35.33
22389;BME280;11362;48.102;11.620;2023-03-26T15:41:03;93933.31;;;23.57;35.27
22389;BME280;11362;48.102;11.620;2023-03-26T15:54:36;93952.38;;;23.55;35.20
22389;BME280;11362;48.102;11.620;2023-03-26T16:00:17;93945.28;;;23.54;35.35
22389;BME280;11362;48.102;11.620;2023-03-26T16:05:34;93943.75;;;23.53;35.29
22389;BME280;11362;48.102;11.620;2023-03-26T16:08:29;93956.06;;;23.52;35.21
22389;BME280;11362;48.102;11.620;2023-03-26T16:10:58;93956.84;;;23.53;35.24
22389;BME280;11362;48.102;11.620;2023-03-26T16:13:34;93942.19;;;23.52;34.80
22389;BME280;11362;48.102;11.620;2023-03-26T16:26:14;93932.66;;;23.53;35.13
22389;BME280;11362;48.102;11.620;2023-03-26T16:33:58;93920.03;;;23.52;35.12
22389;BME280;11362;48.102;11.620;2023-03-26T16:36:44;93914.78;;;23.54;35.09
22389;BME280;11362;48.102;11.620;2023-03-26T16:39:40;93909.25;;;23.54;34.91
22389;BME280;11362;48.102;11.620;2023-03-26T16:42:24;93896.63;;;23.53;34.96
22389;BME280;11362;48.102;11.620;2023-03-26T16:47:59;93889.84;;;23.54;35.12
22389;BME280;11362;48.102;11.620;2023-03-26T16:50:40;93893.41;;;23.55;35.05
22389;BME280;11362;48.102;11.620;2023-03-26T16:53:24;93887.09;;;23.54;35.12
22389;BME280;11362;48.102;11.620;2023-03-26T16:56:11;93885.84;;;23.55;35.25
22389;BME280;11362;48.102;11.620;2023-03-26T17:01:46;93862.47;;;23.56;35.49
22389;BME280;11362;48.102;11.620;2023-03-26T17:04:19;93868.03;;;23.56;35.41
22389;BME280;11362;48.102;11.620;2023-03-26T17:09:56;93933.31;;;23.57;35.50
22389;BME280;11362;48.102;11.620;2023-03-26T17:15:22;93913.56;;;23.55;35.41
22389;BME280;11362;48.102;11.620;2023-03-26T17:24:09;93891.63;;;23.61;35.81